createdAt,value
2023-04-06T00:00:30.490Z,4.50
2023-04-06T00:02:58.917Z,4.30
2023-04-06T00:05:28.743Z,4.10
2023-04-06T00:07:57.119Z,4.00
2023-04-06T00:10:25.889Z,4.00
2023-04-06T00:12:55.184Z,4.20
2023-04-06T00:15:23.779Z,4.20
2023-04-06T00:17:52.548Z,4.20
2023-04-06T00:20:21.373Z,4.20
2023-04-06T00:22:51.180Z,4.30
2023-04-06T00:25:19.259Z,4.40
2023-04-06T00:27:47.333Z,4.30
2023-04-06T00:30:16.071Z,4.30
2023-04-06T00:32:44.442Z,4.30
2023-04-06T00:35:12.804Z,4.20
2023-04-06T00:37:41.819Z,4.10
2023-04-06T00:40:10.693Z,4.10
2023-04-06T00:42:40.168Z,4.20
2023-04-06T00:45:09.159Z,4.20
2023-04-06T00:47:37.274Z,4.10
2023-04-06T00:50:06.891Z,4.00
2023-04-06T00:52:37.091Z,4.10
2023-04-06T00:55:07.588Z,4.00
2023-04-06T00:57:41.198Z,4.10
2023-04-06T01:00:11.270Z,4.20
2023-04-06T01:02:40.621Z,4.30
2023-04-06T01:05:10.511Z,4.30
2023-04-06T01:07:48.823Z,4.30
2023-04-06T01:10:28.079Z,4.40
2023-04-06T01:13:16.929Z,4.50
2023-04-06T01:15:53.795Z,4.50
2023-04-06T01:18:57.263Z,4.40
2023-04-06T01:21:31.116Z,4.30
2023-04-06T01:24:20.544Z,4.20
2023-04-06T01:27:09.309Z,4.20
2023-04-06T01:30:00.935Z,4.10
2023-04-06T01:32:47.538Z,4.10
2023-04-06T01:35:21.150Z,4.20
2023-04-06T01:38:01.156Z,4.10
2023-04-06T01:40:33.691Z,4.00
2023-04-06T01:43:02.652Z,4.00
2023-04-06T01:45:39.061Z,4.10
2023-04-06T01:48:18.547Z,4.10
2023-04-06T01:50:47.179Z,4.20
2023-04-06T01:53:21.201Z,4.20
2023-04-06T01:55:49.930Z,4.20
2023-04-06T01:58:40.737Z,4.20
2023-04-06T02:01:09.182Z,4.20
2023-04-06T02:03:50.559Z,4.20
2023-04-06T02:06:18.843Z,4.20
2023-04-06T02:08:47.271Z,4.30
2023-04-06T02:11:15.798Z,4.30
2023-04-06T02:13:53.329Z,4.30
2023-04-06T02:16:41.685Z,4.40
2023-04-06T02:19:09.906Z,4.50
2023-04-06T02:21:39.043Z,4.50
2023-04-06T02:24:07.539Z,4.50
2023-04-06T02:26:36.018Z,4.50
2023-04-06T02:29:04.932Z,4.50
2023-04-06T02:31:34.609Z,4.50
2023-04-06T02:34:04.120Z,4.50
2023-04-06T02:36:34.311Z,4.40
2023-04-06T02:39:03.094Z,4.40
2023-04-06T02:41:32.022Z,4.30
2023-04-06T02:44:01.317Z,4.30
2023-04-06T02:46:40.917Z,4.20
2023-04-06T02:49:09.809Z,4.10
2023-04-06T02:51:39.104Z,4.10
2023-04-06T02:54:24.217Z,4.00
2023-04-06T02:56:52.953Z,4.00
2023-04-06T02:59:22.611Z,4.10
2023-04-06T03:02:02.578Z,4.20
2023-04-06T03:04:31.800Z,4.20
2023-04-06T03:07:02.319Z,4.10
2023-04-06T03:09:38.864Z,4.00
2023-04-06T03:12:09.910Z,3.90
2023-04-06T03:14:58.700Z,3.80
2023-04-06T03:17:28.236Z,3.60
2023-04-06T03:20:01.478Z,3.50
2023-04-06T03:22:32.306Z,3.40
2023-04-06T03:25:03.137Z,3.40
2023-04-06T03:27:33.791Z,3.40
2023-04-06T03:30:03.743Z,3.30
2023-04-06T03:32:36.996Z,3.30
2023-04-06T03:35:05.554Z,3.30
2023-04-06T03:37:34.476Z,3.30
2023-04-06T03:40:06.752Z,3.20
2023-04-06T03:42:34.873Z,3.20
2023-04-06T03:45:09.155Z,3.30
2023-04-06T03:47:40.793Z,3.40
2023-04-06T03:50:11.490Z,3.30
2023-04-06T03:52:40.404Z,3.30
2023-04-06T03:55:09.164Z,3.20
2023-04-06T03:57:38.754Z,3.10
2023-04-06T04:00:07.888Z,3.10
2023-04-06T04:02:43.565Z,3.00
2023-04-06T04:05:13.027Z,2.80
2023-04-06T04:07:41.573Z,2.70
2023-04-06T04:10:11.854Z,2.70
2023-04-06T04:12:40.786Z,2.70
2023-04-06T04:15:09.460Z,2.90
2023-04-06T04:17:38.371Z,3.00
2023-04-06T04:20:08.745Z,2.80
2023-04-06T04:22:37.659Z,2.70
2023-04-06T04:25:06.461Z,2.70
2023-04-06T04:27:41.055Z,2.70
2023-04-06T04:30:09.988Z,2.80
2023-04-06T04:32:38.582Z,2.80
2023-04-06T04:35:10.110Z,2.70
2023-04-06T04:37:42.912Z,2.60
2023-04-06T04:40:13.349Z,2.50
2023-04-06T04:42:52.146Z,2.30
2023-04-06T04:45:27.604Z,2.30
2023-04-06T04:47:56.286Z,2.20
2023-04-06T04:50:28.153Z,2.20
2023-04-06T04:52:59.382Z,2.20
2023-04-06T04:55:30.652Z,2.20
2023-04-06T04:58:00.855Z,2.20
2023-04-06T05:00:44.939Z,2.30
2023-04-06T05:03:34.622Z,2.40
2023-04-06T05:06:07.157Z,2.50
2023-04-06T05:08:38.695Z,2.70
2023-04-06T05:11:07.153Z,3.10
2023-04-06T05:13:40.756Z,3.30
2023-04-06T05:16:28.021Z,3.60
2023-04-06T05:18:57.941Z,3.70
2023-04-06T05:21:31.475Z,3.80
2023-04-06T05:24:08.063Z,4.30
2023-04-06T05:26:36.779Z,4.80
2023-04-06T05:29:12.601Z,5.30
2023-04-06T05:31:43.092Z,5.80
2023-04-06T05:34:11.667Z,6.00
2023-04-06T05:36:41.627Z,6.10
2023-04-06T05:39:18.597Z,5.90
2023-04-06T05:41:51.990Z,5.10
2023-04-06T05:44:31.910Z,5.10
2023-04-06T05:47:13.690Z,5.40
2023-04-06T05:49:44.197Z,5.50
2023-04-06T05:52:18.620Z,6.00
2023-04-06T05:54:49.545Z,6.30
2023-04-06T05:57:19.494Z,6.00
2023-04-06T05:59:50.708Z,6.10
2023-04-06T06:02:20.524Z,6.50
2023-04-06T06:04:52.385Z,7.10
2023-04-06T06:07:21.706Z,6.90
2023-04-06T06:09:59.884Z,6.60
2023-04-06T06:12:33.700Z,7.00
2023-04-06T06:15:03.913Z,7.40
2023-04-06T06:17:38.927Z,7.40
2023-04-06T06:20:08.631Z,7.30
2023-04-06T06:22:37.101Z,7.30
2023-04-06T06:25:05.730Z,7.50
2023-04-06T06:27:34.519Z,7.30
2023-04-06T06:30:04.304Z,7.20
2023-04-06T06:32:34.245Z,7.40
2023-04-06T06:35:03.845Z,7.50
2023-04-06T06:37:35.578Z,8.00
2023-04-06T06:40:05.449Z,8.20
2023-04-06T06:42:37.680Z,8.20
2023-04-06T06:45:19.031Z,8.10
2023-04-06T06:47:52.911Z,8.40
2023-04-06T06:50:23.252Z,8.50
2023-04-06T06:52:54.412Z,8.40
2023-04-06T06:55:30.462Z,7.90
2023-04-06T06:58:01.368Z,8.30
2023-04-06T07:00:30.196Z,8.80
2023-04-06T07:03:02.535Z,9.50
2023-04-06T07:05:35.372Z,9.20
2023-04-06T07:08:04.393Z,9.00
2023-04-06T07:10:33.209Z,9.40
2023-04-06T07:13:01.870Z,9.50
2023-04-06T07:15:31.218Z,10.20
2023-04-06T07:18:00.591Z,10.10
2023-04-06T07:20:29.235Z,9.70
2023-04-06T07:22:57.496Z,10.40
2023-04-06T07:25:29.079Z,9.80
2023-04-06T07:27:58.029Z,9.20
2023-04-06T07:30:29.010Z,10.00
2023-04-06T07:33:00.143Z,10.70
2023-04-06T07:35:31.527Z,10.40
2023-04-06T07:38:00.578Z,9.80
2023-04-06T07:40:29.140Z,10.20
2023-04-06T07:43:03.428Z,11.30
2023-04-06T07:45:32.712Z,12.00
2023-04-06T07:48:02.539Z,12.30
2023-04-06T07:50:32.084Z,12.70
2023-04-06T07:53:01.605Z,12.40
2023-04-06T07:55:30.783Z,12.40
2023-04-06T07:57:59.641Z,12.20
2023-04-06T08:00:28.098Z,12.30
2023-04-06T08:02:56.664Z,11.90
2023-04-06T08:05:24.796Z,11.30
2023-04-06T08:07:52.937Z,11.40
2023-04-06T08:10:21.038Z,11.90
2023-04-06T08:12:52.040Z,11.50
2023-04-06T08:15:21.175Z,12.10
2023-04-06T08:17:51.621Z,12.70
2023-04-06T08:20:21.042Z,12.40
2023-04-06T08:22:51.070Z,12.90
2023-04-06T08:25:31.256Z,12.70
2023-04-06T08:28:00.553Z,13.50
2023-04-06T08:30:29.721Z,13.90
2023-04-06T08:32:58.588Z,13.80
2023-04-06T08:35:28.167Z,13.70
2023-04-06T08:37:56.689Z,13.40
2023-04-06T08:40:25.617Z,13.80
2023-04-06T08:42:58.039Z,14.30
2023-04-06T08:45:26.991Z,14.00
2023-04-06T08:47:58.166Z,13.20
2023-04-06T08:50:27.723Z,13.70
2023-04-06T08:52:58.523Z,13.60
2023-04-06T08:55:27.058Z,14.30
2023-04-06T08:57:56.869Z,14.90
2023-04-06T09:00:26.890Z,14.70
2023-04-06T09:02:57.314Z,13.60
2023-04-06T09:05:27.681Z,14.20
2023-04-06T09:07:56.460Z,14.20
2023-04-06T09:10:26.189Z,13.90
2023-04-06T09:13:05.818Z,13.60
2023-04-06T09:15:36.051Z,13.50
2023-04-06T09:18:04.785Z,13.70
2023-04-06T09:20:33.172Z,14.30
2023-04-06T09:23:01.498Z,14.80
2023-04-06T09:25:29.764Z,14.90
2023-04-06T09:28:08.160Z,14.60
2023-04-06T09:30:37.086Z,14.80
2023-04-06T09:33:06.103Z,14.50
2023-04-06T09:35:34.296Z,13.70
2023-04-06T09:38:13.388Z,14.00
2023-04-06T09:43:30.787Z,14.60
2023-04-06T09:46:01.990Z,13.70
2023-04-06T09:48:32.483Z,12.40
2023-04-06T09:51:04.590Z,12.70
2023-04-06T09:53:37.177Z,13.70
2023-04-06T09:56:34.883Z,14.10
2023-04-06T09:59:06.593Z,14.50
2023-04-06T10:01:37.018Z,13.90
2023-04-06T10:04:14.629Z,14.10
2023-04-06T10:06:43.407Z,13.80
2023-04-06T10:09:12.469Z,14.30
2023-04-06T10:11:41.205Z,14.20
2023-04-06T10:14:10.621Z,14.10
2023-04-06T10:16:38.778Z,13.60
2023-04-06T10:19:15.130Z,12.40
2023-04-06T10:21:46.723Z,12.40
2023-04-06T10:24:15.122Z,12.80
2023-04-06T10:26:43.257Z,13.20
2023-04-06T10:29:11.689Z,13.60
2023-04-06T10:31:44.544Z,13.60
2023-04-06T10:34:12.829Z,12.60
2023-04-06T10:36:41.004Z,13.00
2023-04-06T10:39:08.991Z,13.30
2023-04-06T10:41:45.921Z,13.50
2023-04-06T10:44:24.795Z,13.40
2023-04-06T10:47:02.798Z,13.70
2023-04-06T10:49:30.965Z,13.80
2023-04-06T10:51:59.496Z,14.10
2023-04-06T10:54:29.184Z,14.30
2023-04-06T10:56:57.875Z,13.30
2023-04-06T10:59:26.600Z,13.60
2023-04-06T11:01:56.987Z,14.20
2023-04-06T11:04:26.342Z,14.30
2023-04-06T11:06:56.153Z,14.40
2023-04-06T11:09:26.199Z,13.60
2023-04-06T11:11:55.033Z,13.50
2023-04-06T11:14:23.317Z,13.80
2023-04-06T11:16:52.083Z,13.50
2023-04-06T11:19:20.482Z,13.70
2023-04-06T11:21:50.314Z,13.60
2023-04-06T11:24:25.296Z,14.10
2023-04-06T11:26:58.203Z,14.10
2023-04-06T11:29:31.053Z,14.00
2023-04-06T11:32:23.184Z,14.40
2023-04-06T11:34:51.311Z,14.70
2023-04-06T11:37:19.407Z,14.70
2023-04-06T11:39:51.105Z,14.80
2023-04-06T11:42:26.940Z,14.70
2023-04-06T11:44:56.098Z,14.70
2023-04-06T11:47:32.398Z,13.80
2023-04-06T11:50:15.932Z,13.70
2023-04-06T11:52:44.785Z,13.60
2023-04-06T11:55:17.883Z,12.80
2023-04-06T11:57:46.584Z,12.80
2023-04-06T12:00:14.988Z,13.00
2023-04-06T12:02:47.544Z,13.40
2023-04-06T12:05:15.868Z,13.90
2023-04-06T12:07:44.012Z,13.90
2023-04-06T12:10:12.217Z,14.10
2023-04-06T12:12:40.926Z,14.20
2023-04-06T12:15:09.710Z,14.20
2023-04-06T12:17:38.265Z,14.40
2023-04-06T12:20:22.141Z,13.80
2023-04-06T12:22:53.634Z,14.10
2023-04-06T12:25:21.774Z,13.80
2023-04-06T12:27:49.986Z,13.80
2023-04-06T12:30:18.146Z,13.70
2023-04-06T12:32:47.238Z,13.70
2023-04-06T12:35:17.285Z,14.20
2023-04-06T12:37:45.666Z,14.60
2023-04-06T12:40:13.846Z,14.70
2023-04-06T12:42:42.901Z,14.70
2023-04-06T12:45:11.488Z,14.80
2023-04-06T12:47:39.488Z,14.90
2023-04-06T12:50:08.135Z,14.70
2023-04-06T12:52:37.559Z,14.40
2023-04-06T12:55:07.371Z,14.30
2023-04-06T12:57:36.213Z,14.50
2023-04-06T13:00:07.058Z,14.70
2023-04-06T13:02:36.775Z,14.60
2023-04-06T13:05:05.334Z,14.70
2023-04-06T13:07:33.296Z,14.70
2023-04-06T13:10:01.338Z,14.80
2023-04-06T13:12:29.618Z,14.70
2023-04-06T13:14:57.911Z,14.90
2023-04-06T13:17:29.109Z,14.90
2023-04-06T13:19:58.400Z,14.70
2023-04-06T13:22:26.734Z,14.50
2023-04-06T13:24:55.493Z,14.00
2023-04-06T13:27:23.937Z,13.80
2023-04-06T13:29:51.984Z,13.70
2023-04-06T13:32:20.061Z,14.00
2023-04-06T13:34:49.946Z,14.30
2023-04-06T13:37:18.080Z,14.60
2023-04-06T13:39:46.112Z,14.60
2023-04-06T13:42:14.181Z,14.30
2023-04-06T13:44:42.423Z,14.40
2023-04-06T13:47:10.761Z,14.40
2023-04-06T13:49:38.934Z,14.40
2023-04-06T13:52:06.907Z,14.50
2023-04-06T13:54:36.281Z,14.30
2023-04-06T13:57:04.534Z,14.20
2023-04-06T13:59:35.035Z,14.30
2023-04-06T14:02:08.361Z,14.30
2023-04-06T14:04:37.610Z,14.20
2023-04-06T14:07:08.406Z,14.30
2023-04-06T14:09:36.544Z,14.30
2023-04-06T14:12:04.516Z,14.30
2023-04-06T14:14:32.605Z,14.30
2023-04-06T14:17:01.307Z,14.30
2023-04-06T14:19:29.402Z,14.30
2023-04-06T14:21:57.547Z,14.00
2023-04-06T14:24:25.898Z,13.80
2023-04-06T14:26:54.127Z,13.70
2023-04-06T14:29:22.162Z,13.60
2023-04-06T14:31:50.656Z,13.50
2023-04-06T14:34:18.636Z,13.60
2023-04-06T14:36:46.828Z,13.70
2023-04-06T14:39:14.937Z,13.80
2023-04-06T14:41:42.969Z,13.90
2023-04-06T14:44:37.831Z,13.90
2023-04-06T14:47:06.525Z,13.70
2023-04-06T14:49:34.557Z,13.60
2023-04-06T14:52:02.710Z,13.60
2023-04-06T14:54:35.675Z,13.50
2023-04-06T14:57:04.490Z,13.40
2023-04-06T14:59:35.930Z,13.30
2023-04-06T15:02:08.027Z,13.30
2023-04-06T15:04:37.699Z,13.20
2023-04-06T15:07:05.934Z,13.20
2023-04-06T15:09:37.381Z,13.20
2023-04-06T15:12:06.425Z,13.20
2023-04-06T15:14:34.573Z,13.20
2023-04-06T15:17:02.528Z,13.20
2023-04-06T15:19:30.585Z,13.20
2023-04-06T15:21:59.738Z,13.20
2023-04-06T15:24:29.012Z,13.10
2023-04-06T15:26:57.974Z,12.90
2023-04-06T15:29:26.824Z,12.90
2023-04-06T15:31:55.061Z,13.10
2023-04-06T15:34:23.106Z,13.20
2023-04-06T15:36:52.311Z,13.20
2023-04-06T15:39:20.113Z,13.10
2023-04-06T15:41:48.221Z,13.00
2023-04-06T15:44:16.837Z,12.90
2023-04-06T15:46:44.834Z,12.90
2023-04-06T15:49:12.836Z,12.80
2023-04-06T15:51:40.926Z,12.80
2023-04-06T15:54:08.907Z,12.70
2023-04-06T15:56:36.838Z,12.60
2023-04-06T15:59:04.810Z,12.50
2023-04-06T16:01:32.956Z,12.50
2023-04-06T16:04:01.750Z,12.30
2023-04-06T16:06:32.662Z,12.20
2023-04-06T16:09:00.729Z,12.10
2023-04-06T16:11:29.184Z,12.00
2023-04-06T16:13:57.984Z,11.80
2023-04-06T16:16:26.279Z,11.80
2023-04-06T16:18:54.443Z,11.70
2023-04-06T16:21:22.508Z,11.60
2023-04-06T16:23:50.499Z,11.60
2023-04-06T16:26:18.723Z,11.60
2023-04-06T16:28:47.604Z,11.50
2023-04-06T16:31:23.026Z,11.40
2023-04-06T16:33:54.681Z,11.30
2023-04-06T16:36:28.050Z,11.30
2023-04-06T16:38:57.473Z,11.10
2023-04-06T16:41:26.755Z,11.00
2023-04-06T16:43:57.672Z,10.90
2023-04-06T16:46:36.269Z,10.90
2023-04-06T16:49:06.984Z,11.00
2023-04-06T16:51:37.029Z,11.00
2023-04-06T16:54:05.359Z,10.80
2023-04-06T16:56:33.593Z,10.80
2023-04-06T16:59:01.854Z,10.70
2023-04-06T17:01:30.634Z,10.70
2023-04-06T17:03:58.950Z,10.50
2023-04-06T17:06:28.040Z,10.50
2023-04-06T17:08:56.283Z,10.50
2023-04-06T17:11:28.549Z,10.40
2023-04-06T17:14:04.042Z,10.40
2023-04-06T17:16:32.867Z,10.40
2023-04-06T17:19:01.028Z,10.40
2023-04-06T17:21:29.098Z,10.40
2023-04-06T17:23:57.170Z,10.30
2023-04-06T17:26:25.188Z,10.30
2023-04-06T17:28:53.273Z,10.20
2023-04-06T17:31:22.540Z,10.20
2023-04-06T17:33:50.882Z,10.20
2023-04-06T17:36:20.649Z,10.10
2023-04-06T17:38:49.882Z,10.10
2023-04-06T17:41:17.773Z,10.10
2023-04-06T17:43:46.016Z,10.20
2023-04-06T17:46:14.503Z,10.10
2023-04-06T17:48:44.028Z,10.10
2023-04-06T17:51:14.810Z,10.10
2023-04-06T17:53:43.075Z,10.00
2023-04-06T17:56:11.358Z,9.90
2023-04-06T17:58:39.900Z,9.90
2023-04-06T18:01:11.339Z,9.90
2023-04-06T18:03:39.433Z,10.00
2023-04-06T18:06:14.229Z,9.90
2023-04-06T18:08:43.154Z,9.90
2023-04-06T18:11:25.723Z,9.80
2023-04-06T18:13:54.054Z,9.80
2023-04-06T18:16:22.477Z,9.80
2023-04-06T18:18:51.298Z,9.70
2023-04-06T18:21:19.920Z,9.60
2023-04-06T18:23:49.469Z,9.60
2023-04-06T18:26:20.034Z,9.70
2023-04-06T18:28:48.370Z,9.80
2023-04-06T18:31:16.918Z,9.80
2023-04-06T18:33:46.950Z,9.80
2023-04-06T18:36:16.008Z,9.80
2023-04-06T18:38:48.068Z,9.90
2023-04-06T18:41:18.095Z,9.70
2023-04-06T18:43:46.891Z,9.60
2023-04-06T18:46:16.417Z,9.50
2023-04-06T18:48:45.099Z,9.40
2023-04-06T18:51:13.123Z,9.30
2023-04-06T18:53:41.247Z,9.10
2023-04-06T18:56:17.710Z,9.00
2023-04-06T18:58:48.313Z,9.00
2023-04-06T19:01:29.981Z,9.00
2023-04-06T19:03:59.554Z,9.00
2023-04-06T19:06:28.402Z,9.10
2023-04-06T19:08:57.095Z,9.00
2023-04-06T19:11:26.403Z,8.90
2023-04-06T19:13:55.386Z,8.60
2023-04-06T19:16:24.102Z,8.50
2023-04-06T19:18:52.246Z,8.50
2023-04-06T19:21:23.112Z,8.50
2023-04-06T19:23:55.264Z,8.40
2023-04-06T19:26:24.480Z,8.30
2023-04-06T19:28:53.323Z,8.20
2023-04-06T19:31:21.872Z,8.10
2023-04-06T19:33:50.228Z,8.00
2023-04-06T19:36:18.509Z,8.00
2023-04-06T19:38:46.760Z,8.00
2023-04-06T19:41:14.811Z,8.10
2023-04-06T19:43:43.545Z,8.10
2023-04-06T19:46:12.171Z,8.10
2023-04-06T19:48:40.324Z,8.00
2023-04-06T19:51:09.220Z,8.00
2023-04-06T19:53:38.041Z,7.90
2023-04-06T19:56:06.286Z,7.90
2023-04-06T19:58:34.808Z,7.80
2023-04-06T20:01:03.410Z,7.80
2023-04-06T20:03:32.617Z,8.00
2023-04-06T20:06:00.981Z,8.10
2023-04-06T20:08:29.966Z,8.00
2023-04-06T20:11:05.873Z,7.80
2023-04-06T20:13:35.281Z,7.80
2023-04-06T20:16:04.382Z,7.70
2023-04-06T20:18:33.160Z,7.70
2023-04-06T20:21:01.630Z,7.70
2023-04-06T20:23:29.652Z,7.70
2023-04-06T20:25:57.738Z,7.60
2023-04-06T20:28:26.078Z,7.60
2023-04-06T20:30:54.235Z,7.60
2023-04-06T20:33:24.276Z,7.50
2023-04-06T20:36:01.764Z,7.30
2023-04-06T20:38:33.783Z,7.30
2023-04-06T20:41:02.586Z,7.30
2023-04-06T20:43:31.969Z,7.30
2023-04-06T20:46:02.149Z,7.30
2023-04-06T20:48:33.548Z,7.30
2023-04-06T20:51:05.014Z,7.10
2023-04-06T20:53:34.153Z,7.00
2023-04-06T20:56:03.451Z,6.90
2023-04-06T20:58:31.922Z,6.90
2023-04-06T21:01:01.476Z,7.00
2023-04-06T21:03:29.731Z,6.90
2023-04-06T21:05:59.971Z,6.80
2023-04-06T21:08:28.539Z,6.70
2023-04-06T21:10:56.846Z,6.70
2023-04-06T21:13:24.886Z,6.70
2023-04-06T21:15:53.938Z,6.70
2023-04-06T21:18:23.086Z,6.70
2023-04-06T21:20:51.216Z,6.50
2023-04-06T21:23:19.663Z,6.40
2023-04-06T21:25:50.238Z,6.30
2023-04-06T21:28:19.176Z,6.20
2023-04-06T21:30:48.185Z,6.40
2023-04-06T21:33:16.398Z,6.50
2023-04-06T21:35:44.930Z,6.50
2023-04-06T21:38:13.758Z,6.30
2023-04-06T21:40:41.904Z,6.10
2023-04-06T21:43:11.168Z,5.90
2023-04-06T21:45:40.281Z,5.80
2023-04-06T21:48:09.470Z,5.90
2023-04-06T21:50:40.931Z,5.90
2023-04-06T21:53:09.548Z,6.00
2023-04-06T21:55:46.717Z,5.90
2023-04-06T21:58:40.189Z,5.80
2023-04-06T22:01:12.756Z,5.90
2023-04-06T22:03:41.322Z,5.80
2023-04-06T22:06:09.916Z,5.80
2023-04-06T22:08:38.443Z,5.80
2023-04-06T22:11:11.541Z,5.80
2023-04-06T22:13:40.387Z,5.90
2023-04-06T22:16:09.239Z,5.90
2023-04-06T22:18:39.200Z,5.90
2023-04-06T22:21:09.284Z,5.80
2023-04-06T22:23:42.514Z,5.90
2023-04-06T22:26:11.764Z,5.90
2023-04-06T22:28:40.191Z,5.80
2023-04-06T22:31:09.168Z,5.70
2023-04-06T22:33:37.338Z,5.60
2023-04-06T22:36:06.170Z,5.50
2023-04-06T22:38:34.370Z,5.40
2023-04-06T22:41:02.313Z,5.30
2023-04-06T22:43:30.509Z,5.30
2023-04-06T22:45:58.983Z,5.50
2023-04-06T22:48:27.131Z,5.50
2023-04-06T22:50:56.499Z,5.50
2023-04-06T22:53:24.591Z,5.60
2023-04-06T22:55:53.494Z,5.60
2023-04-06T22:58:21.926Z,5.70
2023-04-06T23:00:50.562Z,5.60
2023-04-06T23:03:18.761Z,5.50
2023-04-06T23:05:48.033Z,5.60
2023-04-06T23:08:17.118Z,5.60
2023-04-06T23:10:45.944Z,5.60
2023-04-06T23:13:13.930Z,5.50
2023-04-06T23:15:42.391Z,5.50
2023-04-06T23:18:10.918Z,5.40
2023-04-06T23:20:40.475Z,5.40
2023-04-06T23:23:08.960Z,5.40
2023-04-06T23:25:37.012Z,5.40
2023-04-06T23:28:05.820Z,5.50
2023-04-06T23:30:34.516Z,5.50
2023-04-06T23:33:02.481Z,5.50
2023-04-06T23:35:30.616Z,5.40
2023-04-06T23:37:59.522Z,5.20
2023-04-06T23:40:27.513Z,5.10
2023-04-06T23:42:56.410Z,5.20
2023-04-06T23:45:24.424Z,5.20
2023-04-06T23:47:52.929Z,5.20
2023-04-06T23:50:22.156Z,5.20
2023-04-06T23:52:50.972Z,5.20
2023-04-06T23:55:18.993Z,5.10
2023-04-06T23:57:47.046Z,5.00
